sensor_id;sensor_type;location;lat;lon;timestamp;temperature;humidity
23385;DHT22;11865;45.394;10.978;2023-04-26T00:02:20;10.90;99.90
23385;DHT22;11865;45.394;10.978;2023-04-26T00:04:52;11.00;99.90
23385;DHT22;11865;45.394;10.978;2023-04-26T00:07:24;11.00;99.90
23385;DHT22;11865;45.394;10.978;2023-04-26T00:09:51;10.90;99.90
23385;DHT22;11865;45.394;10.978;2023-04-26T00:12:19;11.00;99.90
23385;DHT22;11865;45.394;10.978;2023-04-26T00:14:48;11.00;99.90
23385;DHT22;11865;45.394;10.978;2023-04-26T00:17:15;10.90;99.90
23385;DHT22;11865;45.394;10.978;2023-04-26T00:19:43;10.70;99.90
23385;DHT22;11865;45.394;10.978;2023-04-26T00:22:11;10.60;99.90
23385;DHT22;11865;45.394;10.978;2023-04-26T00:24:39;10.50;99.90
23385;DHT22;11865;45.394;10.978;2023-04-26T00:27:06;10.30;99.90
23385;DHT22;11865;45.394;10.978;2023-04-26T00:29:36;10.60;99.90
23385;DHT22;11865;45.394;10.978;2023-04-26T00:32:04;10.70;99.90
23385;DHT22;11865;45.394;10.978;2023-04-26T00:34:36;10.80;99.90
23385;DHT22;11865;45.394;10.978;2023-04-26T00:37:04;10.80;99.90
23385;DHT22;11865;45.394;10.978;2023-04-26T00:39:31;10.90;99.90
23385;DHT22;11865;45.394;10.978;2023-04-26T00:41:59;11.00;99.90
23385;DHT22;11865;45.394;10.978;2023-04-26T00:44:26;11.10;99.90
23385;DHT22;11865;45.394;10.978;2023-04-26T00:46:54;11.10;99.90
23385;DHT22;11865;45.394;10.978;2023-04-26T00:49:23;11.00;99.90
23385;DHT22;11865;45.394;10.978;2023-04-26T00:51:52;11.00;99.90
23385;DHT22;11865;45.394;10.978;2023-04-26T00:54:20;11.00;99.90
23385;DHT22;11865;45.394;10.978;2023-04-26T00:56:48;10.70;99.90
23385;DHT22;11865;45.394;10.978;2023-04-26T00:59:21;10.50;99.90
23385;DHT22;11865;45.394;10.978;2023-04-26T01:01:49;10.50;99.90
23385;DHT22;11865;45.394;10.978;2023-04-26T01:04:17;10.60;99.90
23385;DHT22;11865;45.394;10.978;2023-04-26T01:06:45;10.70;99.90
23385;DHT22;11865;45.394;10.978;2023-04-26T01:09:13;10.70;99.90
23385;DHT22;11865;45.394;10.978;2023-04-26T01:11:42;10.70;99.90
23385;DHT22;11865;45.394;10.978;2023-04-26T01:14:10;10.80;99.90
23385;DHT22;11865;45.394;10.978;2023-04-26T01:16:38;10.70;99.90
23385;DHT22;11865;45.394;10.978;2023-04-26T01:19:11;10.80;99.90
23385;DHT22;11865;45.394;10.978;2023-04-26T01:21:39;10.70;99.90
23385;DHT22;11865;45.394;10.978;2023-04-26T01:24:11;10.70;99.90
23385;DHT22;11865;45.394;10.978;2023-04-26T01:26:39;10.60;99.90
23385;DHT22;11865;45.394;10.978;2023-04-26T01:29:18;10.60;99.90
23385;DHT22;11865;45.394;10.978;2023-04-26T01:31:46;10.50;99.90
23385;DHT22;11865;45.394;10.978;2023-04-26T01:34:14;10.50;99.90
23385;DHT22;11865;45.394;10.978;2023-04-26T01:36:45;10.50;99.90
23385;DHT22;11865;45.394;10.978;2023-04-26T01:39:12;10.50;99.90
23385;DHT22;11865;45.394;10.978;2023-04-26T01:41:40;10.60;99.90
23385;DHT22;11865;45.394;10.978;2023-04-26T01:44:07;10.50;99.90
23385;DHT22;11865;45.394;10.978;2023-04-26T01:46:34;10.40;99.90
23385;DHT22;11865;45.394;10.978;2023-04-26T01:49:02;10.20;99.90
23385;DHT22;11865;45.394;10.978;2023-04-26T01:51:29;10.10;99.90
23385;DHT22;11865;45.394;10.978;2023-04-26T01:53:58;10.10;99.90
23385;DHT22;11865;45.394;10.978;2023-04-26T01:56:25;9.90;99.90
23385;DHT22;11865;45.394;10.978;2023-04-26T01:58:53;9.90;99.90
23385;DHT22;11865;45.394;10.978;2023-04-26T02:01:24;10.00;99.90
23385;DHT22;11865;45.394;10.978;2023-04-26T02:03:52;10.10;99.90
23385;DHT22;11865;45.394;10.978;2023-04-26T02:06:19;10.20;99.90
23385;DHT22;11865;45.394;10.978;2023-04-26T02:08:47;10.30;99.90
23385;DHT22;11865;45.394;10.978;2023-04-26T02:11:15;10.30;99.90
23385;DHT22;11865;45.394;10.978;2023-04-26T02:13:43;10.30;99.90
23385;DHT22;11865;45.394;10.978;2023-04-26T02:16:10;10.30;99.90
23385;DHT22;11865;45.394;10.978;2023-04-26T02:18:38;10.30;99.90
23385;DHT22;11865;45.394;10.978;2023-04-26T02:21:09;10.30;99.90
23385;DHT22;11865;45.394;10.978;2023-04-26T02:23:36;10.40;99.90
23385;DHT22;11865;45.394;10.978;2023-04-26T02:26:04;10.30;99.90
23385;DHT22;11865;45.394;10.978;2023-04-26T02:28:32;10.40;99.90
23385;DHT22;11865;45.394;10.978;2023-04-26T02:31:01;10.20;99.90
23385;DHT22;11865;45.394;10.978;2023-04-26T02:33:29;10.10;99.90
23385;DHT22;11865;45.394;10.978;2023-04-26T02:35:57;10.10;99.90
23385;DHT22;11865;45.394;10.978;2023-04-26T02:38:25;10.20;99.90
23385;DHT22;11865;45.394;10.978;2023-04-26T02:41:01;10.20;99.90
23385;DHT22;11865;45.394;10.978;2023-04-26T02:43:29;10.10;99.90
23385;DHT22;11865;45.394;10.978;2023-04-26T02:45:57;10.00;99.90
23385;DHT22;11865;45.394;10.978;2023-04-26T02:48:27;9.80;99.90
23385;DHT22;11865;45.394;10.978;2023-04-26T02:50:54;9.80;99.90
23385;DHT22;11865;45.394;10.978;2023-04-26T02:53:23;9.90;99.90
23385;DHT22;11865;45.394;10.978;2023-04-26T02:55:50;9.90;99.90
23385;DHT22;11865;45.394;10.978;2023-04-26T02:58:18;9.80;99.90
23385;DHT22;11865;45.394;10.978;2023-04-26T03:00:48;9.80;99.90
23385;DHT22;11865;45.394;10.978;2023-04-26T03:03:16;9.70;99.90
23385;DHT22;11865;45.394;10.978;2023-04-26T03:05:45;9.40;99.90
23385;DHT22;11865;45.394;10.978;2023-04-26T03:08:13;9.40;99.90
23385;DHT22;11865;45.394;10.978;2023-04-26T03:10:40;9.30;99.90
23385;DHT22;11865;45.394;10.978;2023-04-26T03:13:08;9.20;99.90
23385;DHT22;11865;45.394;10.978;2023-04-26T03:15:35;9.10;99.90
23385;DHT22;11865;45.394;10.978;2023-04-26T03:18:03;9.00;99.90
23385;DHT22;11865;45.394;10.978;2023-04-26T03:20:31;8.90;99.90
23385;DHT22;11865;45.394;10.978;2023-04-26T03:22:58;8.80;99.90
23385;DHT22;11865;45.394;10.978;2023-04-26T03:25:26;8.80;99.90
23385;DHT22;11865;45.394;10.978;2023-04-26T03:27:53;8.70;99.90
23385;DHT22;11865;45.394;10.978;2023-04-26T03:30:22;8.60;99.90
23385;DHT22;11865;45.394;10.978;2023-04-26T03:32:50;8.70;99.90
23385;DHT22;11865;45.394;10.978;2023-04-26T03:35:18;8.80;99.90
23385;DHT22;11865;45.394;10.978;2023-04-26T03:37:46;8.90;99.90
23385;DHT22;11865;45.394;10.978;2023-04-26T03:40:14;8.70;99.90
23385;DHT22;11865;45.394;10.978;2023-04-26T03:42:44;8.70;99.90
23385;DHT22;11865;45.394;10.978;2023-04-26T03:45:12;8.70;99.90
23385;DHT22;11865;45.394;10.978;2023-04-26T03:47:39;8.80;99.90
23385;DHT22;11865;45.394;10.978;2023-04-26T03:50:07;9.00;99.90
23385;DHT22;11865;45.394;10.978;2023-04-26T03:52:35;9.00;99.90
23385;DHT22;11865;45.394;10.978;2023-04-26T03:55:02;9.10;99.90
23385;DHT22;11865;45.394;10.978;2023-04-26T03:57:30;9.20;99.90
23385;DHT22;11865;45.394;10.978;2023-04-26T03:59:57;9.20;99.90
23385;DHT22;11865;45.394;10.978;2023-04-26T04:02:25;9.20;99.90
23385;DHT22;11865;45.394;10.978;2023-04-26T04:04:53;9.30;99.90
23385;DHT22;11865;45.394;10.978;2023-04-26T04:07:21;9.30;99.90
23385;DHT22;11865;45.394;10.978;2023-04-26T04:09:48;9.00;99.90
23385;DHT22;11865;45.394;10.978;2023-04-26T04:12:16;8.80;99.90
23385;DHT22;11865;45.394;10.978;2023-04-26T04:14:44;8.70;99.90
23385;DHT22;11865;45.394;10.978;2023-04-26T04:17:11;8.60;99.90
23385;DHT22;11865;45.394;10.978;2023-04-26T04:19:39;8.50;99.90
23385;DHT22;11865;45.394;10.978;2023-04-26T04:22:06;8.60;99.90
23385;DHT22;11865;45.394;10.978;2023-04-26T04:24:34;8.60;99.90
23385;DHT22;11865;45.394;10.978;2023-04-26T04:27:02;9.00;99.90
23385;DHT22;11865;45.394;10.978;2023-04-26T04:29:30;9.30;99.90
23385;DHT22;11865;45.394;10.978;2023-04-26T04:31:59;9.20;99.90
23385;DHT22;11865;45.394;10.978;2023-04-26T04:34:27;9.30;99.90
23385;DHT22;11865;45.394;10.978;2023-04-26T04:36:54;9.60;99.90
23385;DHT22;11865;45.394;10.978;2023-04-26T04:39:22;9.80;99.90
23385;DHT22;11865;45.394;10.978;2023-04-26T04:41:50;9.90;99.90
23385;DHT22;11865;45.394;10.978;2023-04-26T04:44:18;9.90;99.90
23385;DHT22;11865;45.394;10.978;2023-04-26T04:46:47;10.00;99.90
23385;DHT22;11865;45.394;10.978;2023-04-26T04:49:14;10.00;99.90
23385;DHT22;11865;45.394;10.978;2023-04-26T04:51:42;10.10;99.90
23385;DHT22;11865;45.394;10.978;2023-04-26T04:54:11;10.20;99.90
23385;DHT22;11865;45.394;10.978;2023-04-26T04:56:39;10.30;99.90
23385;DHT22;11865;45.394;10.978;2023-04-26T04:59:07;10.10;99.90
23385;DHT22;11865;45.394;10.978;2023-04-26T05:01:35;10.10;99.90
23385;DHT22;11865;45.394;10.978;2023-04-26T05:04:08;10.20;99.90
23385;DHT22;11865;45.394;10.978;2023-04-26T05:06:37;10.10;99.90
23385;DHT22;11865;45.394;10.978;2023-04-26T05:09:04;10.30;99.90
23385;DHT22;11865;45.394;10.978;2023-04-26T05:11:32;10.40;99.90
23385;DHT22;11865;45.394;10.978;2023-04-26T05:14:01;10.50;99.90
23385;DHT22;11865;45.394;10.978;2023-04-26T05:16:29;10.50;99.90
23385;DHT22;11865;45.394;10.978;2023-04-26T05:18:59;10.60;99.90
23385;DHT22;11865;45.394;10.978;2023-04-26T05:21:26;10.80;99.90
23385;DHT22;11865;45.394;10.978;2023-04-26T05:23:54;10.90;99.90
23385;DHT22;11865;45.394;10.978;2023-04-26T05:26:21;11.00;99.90
23385;DHT22;11865;45.394;10.978;2023-04-26T05:28:56;11.10;99.90
23385;DHT22;11865;45.394;10.978;2023-04-26T05:31:29;11.40;99.90
23385;DHT22;11865;45.394;10.978;2023-04-26T05:34:05;12.80;99.90
23385;DHT22;11865;45.394;10.978;2023-04-26T05:36:39;14.90;99.90
23385;DHT22;11865;45.394;10.978;2023-04-26T05:39:07;16.60;99.90
23385;DHT22;11865;45.394;10.978;2023-04-26T05:41:34;16.60;99.90
23385;DHT22;11865;45.394;10.978;2023-04-26T05:44:02;17.10;99.90
23385;DHT22;11865;45.394;10.978;2023-04-26T05:46:31;17.60;99.90
23385;DHT22;11865;45.394;10.978;2023-04-26T05:48:58;16.80;99.90
23385;DHT22;11865;45.394;10.978;2023-04-26T05:51:27;17.30;99.90
23385;DHT22;11865;45.394;10.978;2023-04-26T06:03:49;18.90;99.90
23385;DHT22;11865;45.394;10.978;2023-04-26T06:06:20;17.80;99.90
23385;DHT22;11865;45.394;10.978;2023-04-26T06:16:11;18.30;99.90
23385;DHT22;11865;45.394;10.978;2023-04-26T07:30:22;19.80;99.90
23385;DHT22;11865;45.394;10.978;2023-04-26T07:32:50;19.70;72.80
23385;DHT22;11865;45.394;10.978;2023-04-26T07:35:19;20.10;78.90
23385;DHT22;11865;45.394;10.978;2023-04-26T07:37:47;17.80;75.60
23385;DHT22;11865;45.394;10.978;2023-04-26T07:40:14;18.40;77.10
23385;DHT22;11865;45.394;10.978;2023-04-26T07:42:42;18.90;78.20
23385;DHT22;11865;45.394;10.978;2023-04-26T07:45:10;18.90;76.60
23385;DHT22;11865;45.394;10.978;2023-04-26T07:47:37;19.50;76.70
23385;DHT22;11865;45.394;10.978;2023-04-26T07:50:05;19.30;78.40
23385;DHT22;11865;45.394;10.978;2023-04-26T07:52:33;18.80;73.90
23385;DHT22;11865;45.394;10.978;2023-04-26T07:55:00;20.10;76.60
23385;DHT22;11865;45.394;10.978;2023-04-26T07:57:28;19.50;77.10
23385;DHT22;11865;45.394;10.978;2023-04-26T07:59:55;20.10;78.20
23385;DHT22;11865;45.394;10.978;2023-04-26T08:02:23;20.90;76.80
23385;DHT22;11865;45.394;10.978;2023-04-26T08:05:09;19.60;74.90
23385;DHT22;11865;45.394;10.978;2023-04-26T08:12:34;18.40;93.90
23385;DHT22;11865;45.394;10.978;2023-04-26T08:15:04;17.90;96.10
23385;DHT22;11865;45.394;10.978;2023-04-26T08:17:31;17.20;99.90
23385;DHT22;11865;45.394;10.978;2023-04-26T08:19:59;17.20;99.90
23385;DHT22;11865;45.394;10.978;2023-04-26T08:22:26;17.20;98.60
23385;DHT22;11865;45.394;10.978;2023-04-26T08:24:55;17.00;99.90
23385;DHT22;11865;45.394;10.978;2023-04-26T18:51:02;15.50;93.00
23385;DHT22;11865;45.394;10.978;2023-04-26T18:53:30;15.50;94.00
23385;DHT22;11865;45.394;10.978;2023-04-26T18:55:57;15.40;93.80
23385;DHT22;11865;45.394;10.978;2023-04-26T18:58:25;15.30;93.90
23385;DHT22;11865;45.394;10.978;2023-04-26T19:00:52;15.30;93.90
23385;DHT22;11865;45.394;10.978;2023-04-26T19:03:20;15.20;94.10
23385;DHT22;11865;45.394;10.978;2023-04-26T19:05:48;15.20;94.70
23385;DHT22;11865;45.394;10.978;2023-04-26T19:08:15;15.10;95.60
23385;DHT22;11865;45.394;10.978;2023-04-26T19:10:43;15.10;95.40
23385;DHT22;11865;45.394;10.978;2023-04-26T19:13:11;15.10;94.50
23385;DHT22;11865;45.394;10.978;2023-04-26T19:15:38;15.00;94.50
23385;DHT22;11865;45.394;10.978;2023-04-26T19:18:06;15.00;94.90
23385;DHT22;11865;45.394;10.978;2023-04-26T19:20:34;15.00;94.50
23385;DHT22;11865;45.394;10.978;2023-04-26T19:23:01;15.00;94.40
23385;DHT22;11865;45.394;10.978;2023-04-26T19:25:28;15.00;94.30
23385;DHT22;11865;45.394;10.978;2023-04-26T19:27:56;15.00;94.30
23385;DHT22;11865;45.394;10.978;2023-04-26T19:30:24;15.00;94.20
23385;DHT22;11865;45.394;10.978;2023-04-26T19:32:51;15.00;94.00
23385;DHT22;11865;45.394;10.978;2023-04-26T19:35:19;14.90;93.90
23385;DHT22;11865;45.394;10.978;2023-04-26T19:37:46;15.00;94.00
23385;DHT22;11865;45.394;10.978;2023-04-26T19:40:14;14.90;94.00
23385;DHT22;11865;45.394;10.978;2023-04-26T19:42:41;14.90;94.10
23385;DHT22;11865;45.394;10.978;2023-04-26T19:45:09;14.90;94.50
23385;DHT22;11865;45.394;10.978;2023-04-26T19:47:39;14.70;94.60
23385;DHT22;11865;45.394;10.978;2023-04-26T19:50:08;14.60;94.90
23385;DHT22;11865;45.394;10.978;2023-04-26T19:52:35;14.60;95.30
23385;DHT22;11865;45.394;10.978;2023-04-26T19:55:03;14.50;94.80
23385;DHT22;11865;45.394;10.978;2023-04-26T19:57:30;14.50;94.70
23385;DHT22;11865;45.394;10.978;2023-04-26T19:59:58;14.40;95.10
23385;DHT22;11865;45.394;10.978;2023-04-26T20:02:25;14.40;94.90
23385;DHT22;11865;45.394;10.978;2023-04-26T20:04:53;14.30;94.90
23385;DHT22;11865;45.394;10.978;2023-04-26T20:07:21;14.30;94.90
23385;DHT22;11865;45.394;10.978;2023-04-26T20:12:16;14.30;94.40
23385;DHT22;11865;45.394;10.978;2023-04-26T20:14:43;14.30;94.90
23385;DHT22;11865;45.394;10.978;2023-04-26T20:17:11;14.20;94.80
23385;DHT22;11865;45.394;10.978;2023-04-26T20:19:38;14.20;94.80
23385;DHT22;11865;45.394;10.978;2023-04-26T20:22:06;14.20;94.90
23385;DHT22;11865;45.394;10.978;2023-04-26T20:24:33;14.20;94.90
23385;DHT22;11865;45.394;10.978;2023-04-26T20:27:01;14.20;95.00
23385;DHT22;11865;45.394;10.978;2023-04-26T20:29:28;14.10;95.10
23385;DHT22;11865;45.394;10.978;2023-04-26T20:31:55;14.10;95.10
23385;DHT22;11865;45.394;10.978;2023-04-26T20:34:23;14.00;95.10
23385;DHT22;11865;45.394;10.978;2023-04-26T20:36:50;14.00;95.30
23385;DHT22;11865;45.394;10.978;2023-04-26T20:39:18;13.90;95.40
23385;DHT22;11865;45.394;10.978;2023-04-26T20:41:48;13.90;95.40
23385;DHT22;11865;45.394;10.978;2023-04-26T20:44:15;13.80;95.50
23385;DHT22;11865;45.394;10.978;2023-04-26T20:46:42;13.90;95.50
23385;DHT22;11865;45.394;10.978;2023-04-26T20:49:10;13.90;94.90
23385;DHT22;11865;45.394;10.978;2023-04-26T20:51:37;13.90;95.00
23385;DHT22;11865;45.394;10.978;2023-04-26T20:54:06;13.90;95.20
23385;DHT22;11865;45.394;10.978;2023-04-26T20:56:33;13.80;95.20
23385;DHT22;11865;45.394;10.978;2023-04-26T20:59:01;13.80;95.20
23385;DHT22;11865;45.394;10.978;2023-04-26T21:01:28;13.80;95.20
23385;DHT22;11865;45.394;10.978;2023-04-26T21:03:56;13.80;95.30
23385;DHT22;11865;45.394;10.978;2023-04-26T21:06:24;13.70;95.40
23385;DHT22;11865;45.394;10.978;2023-04-26T21:08:52;13.70;95.30
23385;DHT22;11865;45.394;10.978;2023-04-26T21:11:19;13.70;95.10
23385;DHT22;11865;45.394;10.978;2023-04-26T21:13:47;13.70;94.90
23385;DHT22;11865;45.394;10.978;2023-04-26T21:16:15;13.70;94.80
23385;DHT22;11865;45.394;10.978;2023-04-26T21:18:43;13.70;94.80
23385;DHT22;11865;45.394;10.978;2023-04-26T21:21:10;13.60;95.10
23385;DHT22;11865;45.394;10.978;2023-04-26T21:23:37;13.60;95.10
23385;DHT22;11865;45.394;10.978;2023-04-26T21:26:05;13.60;94.90
23385;DHT22;11865;45.394;10.978;2023-04-26T21:28:32;13.50;94.60
23385;DHT22;11865;45.394;10.978;2023-04-26T21:31:04;13.50;94.70
23385;DHT22;11865;45.394;10.978;2023-04-26T21:33:32;13.50;94.70
23385;DHT22;11865;45.394;10.978;2023-04-26T21:35:59;13.50;94.60
23385;DHT22;11865;45.394;10.978;2023-04-26T21:38:27;13.40;94.50
23385;DHT22;11865;45.394;10.978;2023-04-26T21:40:54;13.40;94.70
23385;DHT22;11865;45.394;10.978;2023-04-26T21:43:22;13.40;94.80
23385;DHT22;11865;45.394;10.978;2023-04-26T21:45:54;13.40;94.60
23385;DHT22;11865;45.394;10.978;2023-04-26T21:48:21;13.40;94.60
23385;DHT22;11865;45.394;10.978;2023-04-26T21:50:49;13.40;94.50
23385;DHT22;11865;45.394;10.978;2023-04-26T21:53:17;13.30;94.40
23385;DHT22;11865;45.394;10.978;2023-04-26T21:55:49;13.40;94.20
23385;DHT22;11865;45.394;10.978;2023-04-26T21:58:19;13.40;94.00
23385;DHT22;11865;45.394;10.978;2023-04-26T22:04:04;13.20;95.00
23385;DHT22;11865;45.394;10.978;2023-04-26T22:06:32;13.00;95.60
23385;DHT22;11865;45.394;10.978;2023-04-26T22:08:59;12.90;95.70
23385;DHT22;11865;45.394;10.978;2023-04-26T22:11:27;12.80;95.80
23385;DHT22;11865;45.394;10.978;2023-04-26T22:13:55;12.80;96.10
23385;DHT22;11865;45.394;10.978;2023-04-26T22:16:22;12.70;96.20
23385;DHT22;11865;45.394;10.978;2023-04-26T22:18:50;12.70;95.30
23385;DHT22;11865;45.394;10.978;2023-04-26T22:21:17;12.80;94.80
23385;DHT22;11865;45.394;10.978;2023-04-26T22:23:44;12.90;94.80
23385;DHT22;11865;45.394;10.978;2023-04-26T22:26:12;12.90;94.60
23385;DHT22;11865;45.394;10.978;2023-04-26T22:28:40;12.90;94.70
23385;DHT22;11865;45.394;10.978;2023-04-26T22:31:07;12.90;94.60
23385;DHT22;11865;45.394;10.978;2023-04-26T22:33:35;12.90;94.50
23385;DHT22;11865;45.394;10.978;2023-04-26T22:36:03;12.90;94.50
23385;DHT22;11865;45.394;10.978;2023-04-26T22:38:30;12.90;94.50
23385;DHT22;11865;45.394;10.978;2023-04-26T22:40:58;12.90;94.30
23385;DHT22;11865;45.394;10.978;2023-04-26T22:43:25;12.90;94.30
23385;DHT22;11865;45.394;10.978;2023-04-26T22:45:53;12.90;94.50
23385;DHT22;11865;45.394;10.978;2023-04-26T22:48:20;12.90;94.30
23385;DHT22;11865;45.394;10.978;2023-04-26T22:50:48;12.80;94.40
23385;DHT22;11865;45.394;10.978;2023-04-26T22:53:18;12.90;94.20
23385;DHT22;11865;45.394;10.978;2023-04-26T22:55:45;12.80;94.10
23385;DHT22;11865;45.394;10.978;2023-04-26T22:58:12;12.80;94.20
23385;DHT22;11865;45.394;10.978;2023-04-26T23:00:40;12.80;94.10
23385;DHT22;11865;45.394;10.978;2023-04-26T23:03:07;12.80;94.30
23385;DHT22;11865;45.394;10.978;2023-04-26T23:05:35;12.70;94.20
23385;DHT22;11865;45.394;10.978;2023-04-26T23:08:03;12.70;94.20
23385;DHT22;11865;45.394;10.978;2023-04-26T23:10:31;12.70;94.20
23385;DHT22;11865;45.394;10.978;2023-04-26T23:12:58;12.70;94.10
23385;DHT22;11865;45.394;10.978;2023-04-26T23:15:26;12.70;94.10
23385;DHT22;11865;45.394;10.978;2023-04-26T23:17:53;12.70;94.10
23385;DHT22;11865;45.394;10.978;2023-04-26T23:20:21;12.60;93.90
23385;DHT22;11865;45.394;10.978;2023-04-26T23:22:48;12.60;94.00
23385;DHT22;11865;45.394;10.978;2023-04-26T23:25:16;12.60;93.80
23385;DHT22;11865;45.394;10.978;2023-04-26T23:27:45;12.60;94.00
23385;DHT22;11865;45.394;10.978;2023-04-26T23:30:13;12.50;94.00
23385;DHT22;11865;45.394;10.978;2023-04-26T23:32:41;12.50;94.00
23385;DHT22;11865;45.394;10.978;2023-04-26T23:35:08;12.50;94.20
23385;DHT22;11865;45.394;10.978;2023-04-26T23:37:36;12.50;94.10
23385;DHT22;11865;45.394;10.978;2023-04-26T23:40:04;12.40;94.10
23385;DHT22;11865;45.394;10.978;2023-04-26T23:42:32;12.40;93.90
23385;DHT22;11865;45.394;10.978;2023-04-26T23:45:00;12.40;93.60
23385;DHT22;11865;45.394;10.978;2023-04-26T23:47:27;12.50;93.30
23385;DHT22;11865;45.394;10.978;2023-04-26T23:49:57;12.50;93.50
23385;DHT22;11865;45.394;10.978;2023-04-26T23:52:24;12.50;93.20
23385;DHT22;11865;45.394;10.978;2023-04-26T23:54:52;12.50;93.10
23385;DHT22;11865;45.394;10.978;2023-04-26T23:57:19;12.50;93.10
23385;DHT22;11865;45.394;10.978;2023-04-26T23:59:47;12.40;93.40
